EDDK Airport Information

Runway Information
Runway 06 Length 8067 ft width 148 ft
Elevation 231 ft Threshold 0 ft Heading 64
Runway 24 Length 8067 ft Width 148 ft
Elevation 272 ft Threshold 0 ft Heading 244
Runway 14L Length 12516 ft width 197 ft
Elevation 230 ft Threshold 0 ft Heading 138
Runway 32R Length 12516 ft Width 197 ft
Elevation 302 ft Threshold 0 ft Heading 318
Runway 14R Length 6112 ft width 148 ft
Elevation 221 ft Threshold 0 ft Heading 138
Runway 32L Length 6112 ft Width 148 ft
Elevation 259 ft Threshold 0 ft Heading 318
Airport Frequencies
Type ATIS Name ATIS Frequency 112.15 MHZ
Type CLD Name CLNC DEL Frequency 121.85 MHZ
Type DIR Name DIR Frequency 121.05 MHZ
Type GND Name GND Frequency 121.725 MHZ
Type INFO Name LANGEN INF Frequency 129.875 MHZ
Type MISC Name APRON Frequency 121.95 MHZ
Type POST Name MIL Frequency 136.25 MHZ
Type RDR Name LANGEN RAD Frequency 118.75 MHZ
Type TWR Name TWR Frequency 124.975 MHZ
Airport Navaids
Type VORTAC Name Cola Frequency 108800 KHZ
Type VOR-DME Name Koln/Bonn Frequency 112150 KHZ
Type NDB Name Koln/Bonn Frequency 365 KHZ
Type NDB Name Koln/Bonn Frequency 327 KHZ
Type NDB Name Koln/Bonn Frequency 301 KHZ
Airport Weather Information & NOTAM
ADDS - METARS form results

(1846 UTC 17 October 2021)
Data provider http://aviationweather.gov/metar/data/
 
METAR text: EDDK 171820Z VRB02KT CAVOK 09/07 Q1021 NOSIG
Conditions at: EDDK (KOELN/BONN , DE) observed 1820 UTC 17 October 2021
Temperature: 9.0°C (48°F)
Dewpoint: 7.0°C (45°F) [RH = 87%]
Pressure (altimeter): 30.15 inches Hg (1021.0 mb)
Winds: variable direction winds at 2 MPH (2 knots; 1.0 m/s)
Visibility: 6 or more miles (10+ km)
Ceiling: ceiling and visibility are OK
Clouds: unknown
Weather: no significant weather observed at this time

METAR text: EDDK 171750Z VRB02KT CAVOK 10/06 Q1021 NOSIG
Conditions at: EDDK (KOELN/BONN , DE) observed 1750 UTC 17 October 2021
Temperature: 10.0°C (50°F)
Dewpoint: 6.0°C (43°F) [RH = 76%]
Pressure (altimeter): 30.15 inches Hg (1021.0 mb)
Winds: variable direction winds at 2 MPH (2 knots; 1.0 m/s)
Visibility: 6 or more miles (10+ km)
Ceiling: ceiling and visibility are OK
Clouds: unknown
Weather: no significant weather observed at this time

Forecast for: EDDK (KOELN/BONN , DE)
Text: TAF EDDK 171700Z 1718/1824 12004KT CAVOK
Forecast period: 1800 UTC 17 October 2021 to 0800 UTC 18 October 2021
Forecast type: FROM: standard forecast or significant change
Winds: from the ESE (120 degrees) at 5 MPH (4 knots; 2.1 m/s)
Visibility: 6 or more miles (10+ km)
Ceiling: unknown
Clouds: missing
Weather: NSW  (no significant weather)
Text: BECMG 1808/1810 14009KT
Forecast period: 0800 UTC 18 October 2021 to 0000 UTC 19 October 2021
Forecast type: BECOMING: Conditions expected to become as follows by 1000 UTC 18 October 2021
Winds: from the SE (140 degrees) at 10 MPH (9 knots; 4.6 m/s)
Visibility: 6 or more miles (10+ km)
Ceiling: unknown
Clouds: missing
Weather: NSW  (no significant weather)